sensor_id;sensor_type;location;lat;lon;timestamp;P1;durP1;ratioP1;P2;durP2;ratioP2
16673;SDS011;8450;52.654;10.326;2023-03-12T06:18:45;7.17;;;4.90;;
16673;SDS011;8450;52.654;10.326;2023-03-12T06:21:14;5.77;;;4.47;;
16673;SDS011;8450;52.654;10.326;2023-03-12T06:23:43;7.00;;;4.97;;
16673;SDS011;8450;52.654;10.326;2023-03-12T06:26:13;6.27;;;4.50;;
16673;SDS011;8450;52.654;10.326;2023-03-12T06:28:40;4.30;;;3.90;;
16673;SDS011;8450;52.654;10.326;2023-03-12T06:31:07;4.93;;;4.43;;
16673;SDS011;8450;52.654;10.326;2023-03-12T06:33:33;6.83;;;4.97;;
16673;SDS011;8450;52.654;10.326;2023-03-12T06:36:00;5.57;;;4.90;;
16673;SDS011;8450;52.654;10.326;2023-03-12T06:38:27;5.53;;;4.83;;
16673;SDS011;8450;52.654;10.326;2023-03-12T06:41:00;5.77;;;3.73;;
16673;SDS011;8450;52.654;10.326;2023-03-12T06:43:28;4.47;;;4.03;;
16673;SDS011;8450;52.654;10.326;2023-03-12T06:45:56;5.50;;;4.90;;
16673;SDS011;8450;52.654;10.326;2023-03-12T06:48:23;6.63;;;4.07;;
16673;SDS011;8450;52.654;10.326;2023-03-12T06:50:49;8.07;;;5.00;;
16673;SDS011;8450;52.654;10.326;2023-03-12T06:53:16;5.83;;;5.00;;
16673;SDS011;8450;52.654;10.326;2023-03-12T06:55:42;6.63;;;4.63;;
16673;SDS011;8450;52.654;10.326;2023-03-12T06:58:09;7.10;;;5.07;;
16673;SDS011;8450;52.654;10.326;2023-03-12T07:00:35;5.53;;;4.50;;
16673;SDS011;8450;52.654;10.326;2023-03-12T07:03:01;5.73;;;4.50;;
16673;SDS011;8450;52.654;10.326;2023-03-12T07:05:26;5.43;;;3.73;;
16673;SDS011;8450;52.654;10.326;2023-03-12T07:07:52;7.03;;;5.43;;
16673;SDS011;8450;52.654;10.326;2023-03-12T07:10:18;5.17;;;4.17;;
16673;SDS011;8450;52.654;10.326;2023-03-12T07:12:44;5.20;;;4.13;;
16673;SDS011;8450;52.654;10.326;2023-03-12T07:15:10;4.53;;;3.90;;
16673;SDS011;8450;52.654;10.326;2023-03-12T07:17:35;5.70;;;4.07;;
16673;SDS011;8450;52.654;10.326;2023-03-12T07:20:01;5.03;;;4.10;;
16673;SDS011;8450;52.654;10.326;2023-03-12T07:22:27;6.30;;;4.00;;
16673;SDS011;8450;52.654;10.326;2023-03-12T07:24:53;4.13;;;3.37;;
16673;SDS011;8450;52.654;10.326;2023-03-12T07:27:18;4.23;;;3.77;;
16673;SDS011;8450;52.654;10.326;2023-03-12T07:29:44;4.07;;;3.67;;
16673;SDS011;8450;52.654;10.326;2023-03-12T07:32:09;4.33;;;3.30;;
16673;SDS011;8450;52.654;10.326;2023-03-12T07:34:35;4.53;;;4.13;;
16673;SDS011;8450;52.654;10.326;2023-03-12T07:37:01;5.30;;;3.90;;
16673;SDS011;8450;52.654;10.326;2023-03-12T07:39:27;5.73;;;4.30;;
16673;SDS011;8450;52.654;10.326;2023-03-12T07:41:52;4.07;;;3.10;;
16673;SDS011;8450;52.654;10.326;2023-03-12T07:44:18;4.87;;;3.33;;
16673;SDS011;8450;52.654;10.326;2023-03-12T07:46:44;6.37;;;3.30;;
16673;SDS011;8450;52.654;10.326;2023-03-12T07:49:09;3.77;;;3.30;;
16673;SDS011;8450;52.654;10.326;2023-03-12T07:51:35;4.13;;;3.50;;
16673;SDS011;8450;52.654;10.326;2023-03-12T07:54:01;4.27;;;3.87;;
16673;SDS011;8450;52.654;10.326;2023-03-12T07:56:26;5.17;;;3.57;;
16673;SDS011;8450;52.654;10.326;2023-03-12T07:58:52;5.37;;;3.40;;
16673;SDS011;8450;52.654;10.326;2023-03-12T08:01:18;5.17;;;4.07;;
16673;SDS011;8450;52.654;10.326;2023-03-12T08:03:43;4.67;;;3.70;;
16673;SDS011;8450;52.654;10.326;2023-03-12T08:06:09;4.37;;;3.53;;
16673;SDS011;8450;52.654;10.326;2023-03-12T08:08:35;3.67;;;3.17;;
16673;SDS011;8450;52.654;10.326;2023-03-12T08:11:05;4.57;;;3.37;;
16673;SDS011;8450;52.654;10.326;2023-03-12T08:13:31;4.60;;;3.57;;
16673;SDS011;8450;52.654;10.326;2023-03-12T08:15:57;3.57;;;3.07;;
16673;SDS011;8450;52.654;10.326;2023-03-12T08:18:23;5.13;;;3.90;;
16673;SDS011;8450;52.654;10.326;2023-03-12T08:20:49;3.20;;;2.90;;
16673;SDS011;8450;52.654;10.326;2023-03-12T08:23:16;3.50;;;3.20;;
16673;SDS011;8450;52.654;10.326;2023-03-12T08:25:46;4.13;;;3.43;;
16673;SDS011;8450;52.654;10.326;2023-03-12T08:28:13;5.93;;;3.60;;
16673;SDS011;8450;52.654;10.326;2023-03-12T08:30:43;3.77;;;3.43;;
16673;SDS011;8450;52.654;10.326;2023-03-12T08:33:10;4.13;;;3.20;;
16673;SDS011;8450;52.654;10.326;2023-03-12T08:35:36;4.10;;;3.63;;
16673;SDS011;8450;52.654;10.326;2023-03-12T08:38:02;3.33;;;2.70;;
16673;SDS011;8450;52.654;10.326;2023-03-12T08:40:27;3.50;;;2.93;;
16673;SDS011;8450;52.654;10.326;2023-03-12T08:42:53;3.13;;;2.83;;
16673;SDS011;8450;52.654;10.326;2023-03-12T08:45:18;3.60;;;2.93;;
16673;SDS011;8450;52.654;10.326;2023-03-12T08:47:44;3.30;;;2.90;;
16673;SDS011;8450;52.654;10.326;2023-03-12T08:50:10;4.03;;;2.67;;
16673;SDS011;8450;52.654;10.326;2023-03-12T08:52:37;3.17;;;2.87;;
16673;SDS011;8450;52.654;10.326;2023-03-12T08:55:03;3.20;;;2.70;;
16673;SDS011;8450;52.654;10.326;2023-03-12T08:57:30;4.80;;;2.70;;
16673;SDS011;8450;52.654;10.326;2023-03-12T08:59:56;2.70;;;2.50;;
16673;SDS011;8450;52.654;10.326;2023-03-12T09:02:21;3.00;;;2.80;;
16673;SDS011;8450;52.654;10.326;2023-03-12T09:04:47;3.07;;;2.57;;
16673;SDS011;8450;52.654;10.326;2023-03-12T09:07:14;3.63;;;3.03;;
16673;SDS011;8450;52.654;10.326;2023-03-12T09:09:42;3.40;;;2.60;;
16673;SDS011;8450;52.654;10.326;2023-03-12T09:12:08;4.57;;;3.20;;
16673;SDS011;8450;52.654;10.326;2023-03-12T09:14:34;4.17;;;2.60;;
16673;SDS011;8450;52.654;10.326;2023-03-12T09:17:00;3.10;;;2.63;;
16673;SDS011;8450;52.654;10.326;2023-03-12T09:19:26;3.93;;;2.50;;
16673;SDS011;8450;52.654;10.326;2023-03-12T09:21:51;3.40;;;2.40;;
16673;SDS011;8450;52.654;10.326;2023-03-12T09:24:17;3.53;;;2.57;;
16673;SDS011;8450;52.654;10.326;2023-03-12T09:26:43;2.90;;;2.60;;
16673;SDS011;8450;52.654;10.326;2023-03-12T09:29:08;2.70;;;2.50;;
16673;SDS011;8450;52.654;10.326;2023-03-12T09:31:34;3.27;;;2.67;;
16673;SDS011;8450;52.654;10.326;2023-03-12T09:34:00;2.87;;;2.50;;
16673;SDS011;8450;52.654;10.326;2023-03-12T09:36:26;2.50;;;2.30;;
16673;SDS011;8450;52.654;10.326;2023-03-12T09:38:53;2.70;;;2.50;;
16673;SDS011;8450;52.654;10.326;2023-03-12T09:41:22;3.77;;;2.60;;
16673;SDS011;8450;52.654;10.326;2023-03-12T09:43:53;3.00;;;2.30;;
16673;SDS011;8450;52.654;10.326;2023-03-12T09:46:39;2.47;;;2.27;;
16673;SDS011;8450;52.654;10.326;2023-03-12T09:49:19;3.60;;;2.53;;
16673;SDS011;8450;52.654;10.326;2023-03-12T09:52:39;3.20;;;2.40;;
16673;SDS011;8450;52.654;10.326;2023-03-12T09:55:11;4.33;;;2.47;;
16673;SDS011;8450;52.654;10.326;2023-03-12T09:57:40;2.77;;;2.27;;
16673;SDS011;8450;52.654;10.326;2023-03-12T10:00:11;3.87;;;2.40;;
16673;SDS011;8450;52.654;10.326;2023-03-12T10:19:04;3.53;;;2.40;;
16673;SDS011;8450;52.654;10.326;2023-03-12T10:24:55;3.90;;;2.57;;
16673;SDS011;8450;52.654;10.326;2023-03-12T10:27:48;2.83;;;2.53;;
16673;SDS011;8450;52.654;10.326;2023-03-12T10:30:19;6.30;;;2.87;;
16673;SDS011;8450;52.654;10.326;2023-03-12T10:32:58;5.23;;;2.93;;
16673;SDS011;8450;52.654;10.326;2023-03-12T10:35:28;3.30;;;2.40;;
16673;SDS011;8450;52.654;10.326;2023-03-12T10:38:03;3.03;;;2.40;;
16673;SDS011;8450;52.654;10.326;2023-03-12T10:40:30;2.67;;;2.40;;
16673;SDS011;8450;52.654;10.326;2023-03-12T10:43:00;3.90;;;2.60;;
16673;SDS011;8450;52.654;10.326;2023-03-12T10:48:21;4.43;;;2.57;;
16673;SDS011;8450;52.654;10.326;2023-03-12T10:51:08;3.97;;;2.40;;
16673;SDS011;8450;52.654;10.326;2023-03-12T10:53:37;2.57;;;2.10;;
16673;SDS011;8450;52.654;10.326;2023-03-12T10:56:14;4.80;;;2.53;;
16673;SDS011;8450;52.654;10.326;2023-03-12T10:58:48;4.13;;;2.97;;
16673;SDS011;8450;52.654;10.326;2023-03-12T11:03:52;5.33;;;2.40;;
16673;SDS011;8450;52.654;10.326;2023-03-12T11:06:32;3.70;;;2.67;;
16673;SDS011;8450;52.654;10.326;2023-03-12T11:09:40;2.80;;;2.50;;
16673;SDS011;8450;52.654;10.326;2023-03-12T11:11:47;3.37;;;2.67;;
16673;SDS011;8450;52.654;10.326;2023-03-12T11:16:41;3.60;;;2.40;;
16673;SDS011;8450;52.654;10.326;2023-03-12T11:19:09;2.97;;;2.57;;
16673;SDS011;8450;52.654;10.326;2023-03-12T11:21:37;4.00;;;2.20;;
16673;SDS011;8450;52.654;10.326;2023-03-12T11:24:07;3.87;;;2.70;;
16673;SDS011;8450;52.654;10.326;2023-03-12T11:26:37;3.73;;;2.50;;
16673;SDS011;8450;52.654;10.326;2023-03-12T11:29:12;3.27;;;2.37;;
16673;SDS011;8450;52.654;10.326;2023-03-12T11:32:08;4.40;;;2.67;;
16673;SDS011;8450;52.654;10.326;2023-03-12T11:34:49;5.00;;;2.43;;
16673;SDS011;8450;52.654;10.326;2023-03-12T11:42:19;3.47;;;2.50;;
16673;SDS011;8450;52.654;10.326;2023-03-12T11:45:05;4.20;;;2.50;;
16673;SDS011;8450;52.654;10.326;2023-03-12T11:47:45;4.00;;;2.40;;
16673;SDS011;8450;52.654;10.326;2023-03-12T11:53:22;3.13;;;2.20;;
16673;SDS011;8450;52.654;10.326;2023-03-12T11:58:51;4.33;;;3.27;;
16673;SDS011;8450;52.654;10.326;2023-03-12T12:01:30;3.93;;;2.93;;
16673;SDS011;8450;52.654;10.326;2023-03-12T12:07:11;3.10;;;2.30;;
16673;SDS011;8450;52.654;10.326;2023-03-12T12:18:46;4.20;;;2.80;;
16673;SDS011;8450;52.654;10.326;2023-03-12T12:20:58;3.80;;;2.50;;
16673;SDS011;8450;52.654;10.326;2023-03-12T12:23:51;3.37;;;2.70;;
16673;SDS011;8450;52.654;10.326;2023-03-12T12:26:27;3.10;;;2.80;;
16673;SDS011;8450;52.654;10.326;2023-03-12T12:32:12;5.13;;;3.17;;
16673;SDS011;8450;52.654;10.326;2023-03-12T12:35:02;5.23;;;2.80;;
16673;SDS011;8450;52.654;10.326;2023-03-12T12:37:52;3.47;;;2.57;;
16673;SDS011;8450;52.654;10.326;2023-03-12T12:43:22;3.30;;;2.77;;
16673;SDS011;8450;52.654;10.326;2023-03-12T12:46:14;5.53;;;2.70;;
16673;SDS011;8450;52.654;10.326;2023-03-12T12:48:52;4.27;;;2.33;;
16673;SDS011;8450;52.654;10.326;2023-03-12T12:51:20;4.03;;;3.20;;
16673;SDS011;8450;52.654;10.326;2023-03-12T12:54:01;4.20;;;2.90;;
16673;SDS011;8450;52.654;10.326;2023-03-12T12:56:51;6.10;;;3.03;;
16673;SDS011;8450;52.654;10.326;2023-03-12T12:59:35;4.50;;;2.70;;
16673;SDS011;8450;52.654;10.326;2023-03-12T13:02:12;4.63;;;2.80;;
16673;SDS011;8450;52.654;10.326;2023-03-12T13:04:41;4.83;;;2.97;;
16673;SDS011;8450;52.654;10.326;2023-03-12T13:09:40;5.03;;;2.97;;
16673;SDS011;8450;52.654;10.326;2023-03-12T13:12:20;3.53;;;2.90;;
16673;SDS011;8450;52.654;10.326;2023-03-12T13:14:57;3.63;;;3.23;;
16673;SDS011;8450;52.654;10.326;2023-03-12T13:17:28;2.63;;;2.43;;
16673;SDS011;8450;52.654;10.326;2023-03-12T13:22:35;4.00;;;3.00;;
16673;SDS011;8450;52.654;10.326;2023-03-12T13:30:56;3.90;;;3.07;;
16673;SDS011;8450;52.654;10.326;2023-03-12T13:38:54;4.60;;;3.20;;
16673;SDS011;8450;52.654;10.326;2023-03-12T13:41:34;4.13;;;3.37;;
16673;SDS011;8450;52.654;10.326;2023-03-12T13:47:02;6.20;;;3.40;;
16673;SDS011;8450;52.654;10.326;2023-03-12T13:49:58;8.33;;;3.50;;
16673;SDS011;8450;52.654;10.326;2023-03-12T13:54:58;3.83;;;3.17;;
16673;SDS011;8450;52.654;10.326;2023-03-12T13:57:37;3.00;;;2.57;;
16673;SDS011;8450;52.654;10.326;2023-03-12T14:00:05;6.97;;;3.50;;
16673;SDS011;8450;52.654;10.326;2023-03-12T14:02:37;5.50;;;3.50;;
16673;SDS011;8450;52.654;10.326;2023-03-12T14:05:12;3.77;;;3.37;;
16673;SDS011;8450;52.654;10.326;2023-03-12T14:07:47;8.00;;;3.30;;
16673;SDS011;8450;52.654;10.326;2023-03-12T14:10:42;3.40;;;3.10;;
16673;SDS011;8450;52.654;10.326;2023-03-12T14:13:59;4.80;;;3.47;;
16673;SDS011;8450;52.654;10.326;2023-03-12T14:16:41;5.90;;;3.77;;
16673;SDS011;8450;52.654;10.326;2023-03-12T14:19:13;3.47;;;3.13;;
16673;SDS011;8450;52.654;10.326;2023-03-12T14:21:43;5.87;;;3.70;;
16673;SDS011;8450;52.654;10.326;2023-03-12T14:24:22;4.63;;;3.30;;
16673;SDS011;8450;52.654;10.326;2023-03-12T14:26:51;4.70;;;3.23;;
16673;SDS011;8450;52.654;10.326;2023-03-12T14:32:05;7.33;;;3.90;;
16673;SDS011;8450;52.654;10.326;2023-03-12T14:34:42;4.70;;;3.57;;
16673;SDS011;8450;52.654;10.326;2023-03-12T14:39:48;4.07;;;3.67;;
16673;SDS011;8450;52.654;10.326;2023-03-12T14:42:23;5.67;;;3.70;;
16673;SDS011;8450;52.654;10.326;2023-03-12T14:44:54;4.27;;;3.60;;
16673;SDS011;8450;52.654;10.326;2023-03-12T14:47:22;4.20;;;3.80;;
16673;SDS011;8450;52.654;10.326;2023-03-12T14:49:48;3.77;;;3.47;;
16673;SDS011;8450;52.654;10.326;2023-03-12T14:52:20;5.63;;;4.27;;
16673;SDS011;8450;52.654;10.326;2023-03-12T14:55:00;4.83;;;3.60;;
16673;SDS011;8450;52.654;10.326;2023-03-12T14:57:32;4.80;;;4.07;;
16673;SDS011;8450;52.654;10.326;2023-03-12T14:59:58;4.47;;;3.90;;
16673;SDS011;8450;52.654;10.326;2023-03-12T15:02:26;4.97;;;3.77;;
16673;SDS011;8450;52.654;10.326;2023-03-12T15:04:55;4.30;;;3.70;;
16673;SDS011;8450;52.654;10.326;2023-03-12T15:07:33;3.77;;;3.47;;
16673;SDS011;8450;52.654;10.326;2023-03-12T15:10:14;7.03;;;4.47;;
16673;SDS011;8450;52.654;10.326;2023-03-12T15:12:47;5.17;;;3.97;;
16673;SDS011;8450;52.654;10.326;2023-03-12T15:15:26;4.23;;;3.83;;
16673;SDS011;8450;52.654;10.326;2023-03-12T15:18:07;4.63;;;3.93;;
16673;SDS011;8450;52.654;10.326;2023-03-12T15:20:48;4.93;;;3.60;;
16673;SDS011;8450;52.654;10.326;2023-03-12T15:23:16;4.87;;;4.37;;
16673;SDS011;8450;52.654;10.326;2023-03-12T15:25:43;4.20;;;3.80;;
16673;SDS011;8450;52.654;10.326;2023-03-12T15:30:35;4.30;;;3.67;;
16673;SDS011;8450;52.654;10.326;2023-03-12T15:33:20;4.37;;;3.87;;
16673;SDS011;8450;52.654;10.326;2023-03-12T15:41:39;4.00;;;3.70;;
16673;SDS011;8450;52.654;10.326;2023-03-12T15:44:15;3.60;;;3.30;;
